Time;durP1;ratioP1;P1;durP2;ratioP2;P2;SDS_P1;SDS_P2;PMS_P1;PMS_P2;Temp;Humidity;BMP_temperature;BMP_pressure;BME280_temperature;BME280_humidity;BME280_pressure;Samples;Min_cycle;Max_cycle;Signal;HPM_P1;HPM_P2
2024/03/17 00:00:25;;;;;;;69.70;33.60;;;;;;;12.92;53.64;100329.98;107379;1264;70893;-67
2024/03/17 00:02:52;;;;;;;65.00;31.80;;;;;;;12.77;54.20;100331.48;107356;1264;72601;-67
2024/03/17 00:05:18;;;;;;;73.70;35.90;;;;;;;12.79;54.23;100332.29;108236;1253;61007;-67
2024/03/17 00:07:45;;;;;;;66.80;33.10;;;;;;;12.90;53.96;100329.70;108292;1253;60392;-67
2024/03/17 00:10:11;;;;;;;70.50;34.30;;;;;;;12.89;54.09;100327.98;108215;1253;72565;-67
2024/03/17 00:12:38;;;;;;;72.20;36.00;;;;;;;12.92;53.92;100323.48;108243;1253;70331;-67
2024/03/17 00:15:06;;;;;;;84.60;38.90;;;;;;;13.00;53.68;100321.88;108289;1252;71385;-67
2024/03/17 00:17:34;;;;;;;71.10;35.60;;;;;;;13.04;53.54;100320.46;108242;1253;61249;-67
2024/03/17 00:20:08;;;;;;;83.90;39.70;;;;;;;12.99;53.55;100315.76;108364;1253;59205;-66
2024/03/17 00:22:39;;;;;;;77.50;36.30;;;;;;;12.95;53.85;100314.16;108189;1252;73720;-67
2024/03/17 00:25:07;;;;;;;76.70;35.70;;;;;;;12.79;54.19;100311.86;108225;1253;70635;-66
2024/03/17 00:27:36;;;;;;;80.50;36.20;;;;;;;12.80;54.26;100307.60;108289;1255;71592;-67
2024/03/17 00:30:08;;;;;;;83.20;37.70;;;;;;;12.69;54.54;100310.00;108218;1253;59773;-67
2024/03/17 00:32:35;;;;;;;82.60;37.30;;;;;;;12.60;54.84;100305.44;108240;1252;60339;-66
2024/03/17 00:35:02;;;;;;;78.30;38.70;;;;;;;12.61;54.96;100301.20;108243;1253;74005;-67
2024/03/17 00:37:29;;;;;;;76.60;36.30;;;;;;;12.48;55.33;100299.98;108240;1253;70309;-67
2024/03/17 00:39:56;;;;;;;81.20;37.30;;;;;;;12.40;55.67;100298.89;108219;1253;72719;-65
2024/03/17 00:42:23;;;;;;;73.70;35.60;;;;;;;12.36;55.89;100301.36;108219;1253;60267;-66
2024/03/17 00:44:49;;;;;;;92.70;42.60;;;;;;;12.49;55.35;100296.41;108284;1253;60450;-67
2024/03/17 00:47:16;;;;;;;97.70;42.90;;;;;;;12.51;55.37;100296.15;108177;1253;60245;-68
2024/03/17 00:49:42;;;;;;;87.10;40.20;;;;;;;12.54;55.34;100292.87;108254;1253;60284;-67
2024/03/17 00:52:09;;;;;;;101.50;45.40;;;;;;;12.56;55.44;100287.84;108137;1252;60182;-67
2024/03/17 00:54:35;;;;;;;80.10;37.70;;;;;;;12.63;55.32;100287.73;108161;1255;61019;-67
2024/03/17 00:57:02;;;;;;;93.10;41.70;;;;;;;12.58;55.30;100283.52;108139;1253;60302;-67
2024/03/17 00:59:29;;;;;;;91.90;41.50;;;;;;;12.64;55.18;100282.20;108178;1253;73833;-67
2024/03/17 01:01:55;;;;;;;83.10;38.60;;;;;;;12.63;55.20;100279.27;108162;1252;68851;-67
2024/03/17 01:04:22;;;;;;;94.90;42.20;;;;;;;12.68;54.94;100279.20;108157;1254;72586;-67
2024/03/17 01:06:49;;;;;;;95.60;44.10;;;;;;;12.65;55.18;100277.74;107954;1253;60379;-66
2024/03/17 01:09:15;;;;;;;90.70;40.90;;;;;;;12.70;54.98;100274.21;108372;1252;60395;-66
2024/03/17 01:11:42;;;;;;;106.40;46.10;;;;;;;12.66;55.06;100273.85;108228;1253;73888;-67
2024/03/17 01:14:08;;;;;;;89.50;41.30;;;;;;;12.69;55.07;100268.59;108190;1253;60282;-67
2024/03/17 01:16:35;;;;;;;106.50;45.90;;;;;;;12.77;54.73;100269.84;108164;1254;72687;-66
2024/03/17 01:19:02;;;;;;;96.70;44.20;;;;;;;12.91;54.31;100269.78;108189;1253;61098;-67
2024/03/17 01:21:29;;;;;;;100.30;46.10;;;;;;;12.82;54.51;100266.09;108192;1253;60398;-67
2024/03/17 01:23:56;;;;;;;102.90;46.00;;;;;;;12.87;54.49;100269.08;108218;1256;73700;-67
2024/03/17 01:26:24;;;;;;;99.00;46.50;;;;;;;12.67;55.20;100267.46;108172;1253;70433;-67
2024/03/17 01:28:50;;;;;;;104.80;47.60;;;;;;;12.77;54.85;100266.85;108131;1253;72478;-66
2024/03/17 01:31:16;;;;;;;100.40;47.50;;;;;;;12.80;54.76;100266.34;108123;1254;60284;-67
2024/03/17 01:33:43;;;;;;;96.00;43.20;;;;;;;12.87;54.44;100263.40;108246;1253;60333;-67
2024/03/17 01:36:10;;;;;;;106.20;47.50;;;;;;;12.77;54.57;100260.84;108144;1253;74025;-66
2024/03/17 01:38:36;;;;;;;109.30;49.50;;;;;;;12.55;55.09;100262.33;108209;1256;70403;-67
2024/03/17 01:41:04;;;;;;;108.50;48.60;;;;;;;12.64;54.94;100258.23;108213;1253;72534;-67
2024/03/17 01:43:31;;;;;;;124.70;51.00;;;;;;;12.75;54.72;100257.59;108181;1253;60277;-67
2024/03/17 01:45:58;;;;;;;116.60;50.40;;;;;;;12.74;54.76;100256.23;108209;1253;60417;-67
2024/03/17 01:48:26;;;;;;;118.20;51.50;;;;;;;12.81;54.49;100252.91;108162;1257;73622;-67
2024/03/17 01:50:53;;;;;;;117.00;52.90;;;;;;;12.61;54.96;100253.98;108188;1253;70307;-67
2024/03/17 01:53:20;;;;;;;123.60;54.60;;;;;;;12.58;55.14;100254.64;108121;1253;72441;-67
2024/03/17 01:55:47;;;;;;;119.30;53.10;;;;;;;12.68;54.75;100251.36;108142;1253;61558;-67
2024/03/17 01:58:13;;;;;;;115.00;50.70;;;;;;;12.63;54.85;100251.23;108173;1256;60179;-67
2024/03/17 02:00:40;;;;;;;139.10;58.40;;;;;;;12.61;54.80;100246.75;108202;1254;73615;-67
2024/03/17 02:03:10;;;;;;;119.90;53.20;;;;;;;12.60;54.88;100248.57;108170;1253;70826;-67
2024/03/17 02:05:40;;;;;;;115.90;53.50;;;;;;;12.61;55.00;100244.10;108178;1253;72990;-67
2024/03/17 02:08:06;;;;;;;123.90;55.30;;;;;;;12.77;54.60;100241.63;108153;1253;61052;-67
2024/03/17 02:10:34;;;;;;;101.60;46.90;;;;;;;12.72;54.61;100240.97;108153;1253;60284;-67
2024/03/17 02:13:03;;;;;;;114.20;50.00;;;;;;;12.75;54.55;100239.63;108192;1253;73637;-67
2024/03/17 02:15:30;;;;;;;126.80;55.60;;;;;;;12.81;54.46;100243.23;108230;1253;70267;-67
2024/03/17 02:17:57;;;;;;;114.40;52.20;;;;;;;12.92;54.15;100240.45;108157;1252;72491;-66
2024/03/17 02:20:54;;;;;;;112.70;52.00;;;;;;;12.90;54.22;100239.13;108119;1254;60431;-67
2024/03/17 02:23:10;;;;;;;103.90;48.80;;;;;;;13.05;53.88;100234.06;108182;1253;60544;-67
2024/03/17 02:25:37;;;;;;;101.70;46.30;;;;;;;12.86;54.12;100236.32;108135;1254;71807;-67
2024/03/17 02:28:04;;;;;;;112.50;52.10;;;;;;;12.89;53.94;100230.91;108153;1256;68838;-67
2024/03/17 02:30:31;;;;;;;93.60;43.30;;;;;;;12.89;53.91;100234.23;108225;1254;72802;-66
2024/03/17 02:32:58;;;;;;;102.90;47.40;;;;;;;12.92;53.83;100230.40;108205;1256;60843;-67
2024/03/17 02:35:24;;;;;;;104.40;46.90;;;;;;;12.83;54.22;100233.48;108225;1253;60390;-67
2024/03/17 02:37:51;;;;;;;110.50;48.80;;;;;;;12.78;54.40;100233.70;108024;1253;73784;-67
2024/03/17 02:40:18;;;;;;;104.40;48.50;;;;;;;12.75;54.33;100229.59;108287;1254;70167;-67
2024/03/17 02:42:45;;;;;;;105.90;48.60;;;;;;;12.78;54.27;100228.55;108230;1255;72484;-67
2024/03/17 02:45:12;;;;;;;103.50;46.70;;;;;;;12.66;54.61;100224.17;108198;1254;61097;-66
2024/03/17 02:47:39;;;;;;;113.00;49.40;;;;;;;12.60;54.69;100222.66;108160;1256;60271;-66
2024/03/17 02:50:07;;;;;;;109.50;45.90;;;;;;;12.63;54.75;100222.70;108046;1253;72778;-67
2024/03/17 02:52:34;;;;;;;100.00;47.00;;;;;;;12.57;54.88;100218.23;108251;1256;70274;-66
2024/03/17 02:55:00;;;;;;;108.80;47.90;;;;;;;12.62;54.76;100220.30;108247;1254;73003;-67
2024/03/17 02:57:30;;;;;;;96.80;43.30;;;;;;;12.70;54.50;100217.65;108090;1254;60891;-67
2024/03/17 02:59:58;;;;;;;103.20;47.80;;;;;;;12.68;54.40;100216.48;108149;1254;60383;-67
2024/03/17 03:02:24;;;;;;;105.90;46.50;;;;;;;12.57;54.72;100213.46;108113;1253;74078;-67
2024/03/17 03:04:51;;;;;;;102.60;46.60;;;;;;;12.49;55.11;100210.30;108137;1254;69521;-67
2024/03/17 03:07:18;;;;;;;103.90;45.60;;;;;;;12.56;54.93;100210.19;108144;1256;60166;-66
2024/03/17 03:09:44;;;;;;;89.70;40.80;;;;;;;12.60;54.65;100208.75;108116;1254;60471;-67
2024/03/17 03:12:11;;;;;;;96.40;43.70;;;;;;;12.55;54.67;100203.70;108157;1253;60381;-67
2024/03/17 03:14:37;;;;;;;97.70;44.80;;;;;;;12.32;55.47;100207.50;108129;1257;60422;-67
2024/03/17 03:17:04;;;;;;;98.00;44.60;;;;;;;12.51;54.94;100199.66;108102;1253;59090;-67
2024/03/17 03:19:30;;;;;;;103.80;46.20;;;;;;;12.59;54.73;100200.52;108043;1255;60394;-67
2024/03/17 03:21:57;;;;;;;95.10;42.30;;;;;;;12.60;54.62;100201.52;108093;1255;60468;-67
2024/03/17 03:24:23;;;;;;;93.00;42.60;;;;;;;12.55;54.66;100201.23;108104;1256;60435;-67
2024/03/17 03:26:50;;;;;;;87.90;40.80;;;;;;;12.36;55.35;100198.71;108127;1254;60290;-67
2024/03/17 03:29:16;;;;;;;98.30;44.40;;;;;;;12.32;55.38;100199.75;108172;1256;60442;-67
2024/03/17 03:31:43;;;;;;;98.20;43.50;;;;;;;12.33;55.41;100195.83;108092;1253;71247;-67
2024/03/17 03:34:10;;;;;;;79.70;37.50;;;;;;;12.27;55.82;100194.88;108190;1254;61222;-67
2024/03/17 03:36:38;;;;;;;103.60;45.70;;;;;;;12.34;55.36;100192.61;108244;1254;61214;-67
2024/03/17 03:39:05;;;;;;;99.20;43.60;;;;;;;12.34;55.49;100195.96;108135;1254;74666;-67
2024/03/17 03:41:32;;;;;;;92.00;41.30;;;;;;;12.31;55.60;100191.20;108168;1257;61226;-67
2024/03/17 03:43:59;;;;;;;93.70;42.40;;;;;;;12.38;55.39;100191.91;108190;1253;71553;-67
2024/03/17 03:46:26;;;;;;;93.30;43.70;;;;;;;12.31;55.74;100189.61;108168;1253;61234;-67
2024/03/17 03:48:53;;;;;;;98.40;44.60;;;;;;;12.22;55.73;100188.39;108202;1253;61058;-68
2024/03/17 03:51:19;;;;;;;96.90;44.60;;;;;;;12.26;55.76;100191.06;108218;1257;74158;-67
2024/03/17 03:53:46;;;;;;;93.40;41.30;;;;;;;12.26;55.86;100192.08;108197;1257;70304;-66
2024/03/17 03:56:12;;;;;;;105.10;45.10;;;;;;;12.20;56.03;100193.59;108218;1252;72631;-67
2024/03/17 03:58:40;;;;;;;93.80;41.40;;;;;;;12.48;55.40;100193.44;108187;1253;61571;-66
2024/03/17 04:01:07;;;;;;;88.60;40.80;;;;;;;12.52;55.10;100192.01;108196;1254;61100;-67
2024/03/17 04:03:34;;;;;;;94.50;45.30;;;;;;;12.67;54.76;100189.44;108200;1254;74481;-67
2024/03/17 04:06:07;;;;;;;88.40;41.50;;;;;;;12.63;54.74;100187.13;108209;1252;68802;-67
2024/03/17 04:08:34;;;;;;;92.00;43.00;;;;;;;12.44;55.12;100190.62;108249;1253;71246;-67
2024/03/17 04:11:01;;;;;;;105.90;46.80;;;;;;;12.47;55.23;100186.59;108256;1253;60379;-68
2024/03/17 04:13:33;;;;;;;93.40;40.50;;;;;;;12.53;55.09;100187.41;108278;1254;61180;-67
2024/03/17 04:16:01;;;;;;;95.00;43.10;;;;;;;12.40;55.28;100183.75;108187;1256;74531;-66
2024/03/17 04:18:30;;;;;;;94.40;41.30;;;;;;;12.23;55.80;100181.86;108137;1257;70150;-67
2024/03/17 04:21:03;;;;;;;90.20;42.40;;;;;;;12.43;55.21;100182.22;108196;1254;73036;-67
2024/03/17 04:23:32;;;;;;;106.60;47.10;;;;;;;12.41;55.27;100180.17;108167;1253;61217;-67
2024/03/17 04:25:59;;;;;;;101.50;42.90;;;;;;;12.55;54.98;100178.32;108206;1253;61200;-68
2024/03/17 04:28:26;;;;;;;102.90;46.60;;;;;;;12.79;54.33;100177.98;108150;1254;74440;-67
2024/03/17 04:30:53;;;;;;;99.30;43.50;;;;;;;12.80;54.20;100172.63;108118;1256;69989;-67
2024/03/17 04:33:19;;;;;;;93.60;42.30;;;;;;;12.76;54.21;100175.10;108146;1252;72641;-67
2024/03/17 04:35:46;;;;;;;104.60;44.70;;;;;;;12.67;54.44;100176.04;108069;1253;61159;-67
2024/03/17 04:38:14;;;;;;;88.90;41.60;;;;;;;12.64;54.61;100175.82;108206;1254;61234;-67
2024/03/17 04:40:43;;;;;;;92.60;42.70;;;;;;;12.81;54.22;100177.16;108187;1251;73387;-67
2024/03/17 04:43:10;;;;;;;86.90;39.30;;;;;;;12.77;54.24;100169.94;108216;1253;70462;-67
2024/03/17 04:45:37;;;;;;;98.10;45.70;;;;;;;12.75;54.44;100170.90;108161;1253;72595;-66
2024/03/17 04:48:04;;;;;;;96.40;42.70;;;;;;;12.88;54.19;100168.73;108095;1256;60425;-67
2024/03/17 04:50:32;;;;;;;93.50;42.70;;;;;;;12.88;54.31;100169.13;108106;1257;61067;-67
2024/03/17 04:52:59;;;;;;;112.20;48.60;;;;;;;12.86;54.35;100165.86;108102;1254;73156;-67
2024/03/17 04:55:26;;;;;;;102.30;45.70;;;;;;;12.69;54.56;100166.80;108086;1254;70061;-67
2024/03/17 04:57:52;;;;;;;103.90;47.40;;;;;;;12.75;54.56;100165.79;108084;1256;72500;-67
2024/03/17 05:00:20;;;;;;;99.60;46.10;;;;;;;12.81;54.43;100163.08;108060;1256;61064;-67
2024/03/17 05:02:47;;;;;;;101.50;46.90;;;;;;;12.84;54.45;100162.08;108058;1254;61167;-67
2024/03/17 05:05:14;;;;;;;94.30;43.70;;;;;;;12.71;54.74;100160.15;108136;1253;74442;-67
2024/03/17 05:07:40;;;;;;;97.70;46.60;;;;;;;12.86;54.34;100158.64;108062;1254;69995;-67
2024/03/17 05:10:07;;;;;;;83.70;38.30;;;;;;;12.88;54.35;100159.21;108069;1254;72793;-67
2024/03/17 05:12:34;;;;;;;102.80;45.70;;;;;;;12.95;54.17;100158.39;108140;1253;61064;-67
2024/03/17 05:15:01;;;;;;;88.50;41.90;;;;;;;12.97;54.37;100157.41;108212;1254;61127;-66
2024/03/17 05:17:27;;;;;;;93.60;44.30;;;;;;;13.32;54.35;100157.35;108116;1256;74467;-67
2024/03/17 05:19:54;;;;;;;95.10;43.50;;;;;;;13.87;53.22;100153.24;108112;1254;70630;-67
2024/03/17 05:22:21;;;;;;;78.50;36.40;;;;;;;14.23;52.50;100150.55;108051;1260;71497;-67
2024/03/17 05:24:48;;;;;;;89.40;44.30;;;;;;;14.68;51.89;100152.80;108079;1254;61057;-67
2024/03/17 05:27:15;;;;;;;79.90;39.60;;;;;;;15.21;50.46;100144.23;108130;1253;61187;-68
2024/03/17 05:29:41;;;;;;;71.40;37.20;;;;;;;15.79;49.29;100145.77;108149;1253;73689;-67
2024/03/17 05:32:08;;;;;;;76.70;39.30;;;;;;;15.96;48.21;100143.02;108055;1256;70368;-67
2024/03/17 05:34:34;;;;;;;62.20;35.00;;;;;;;16.10;47.82;100143.06;108201;1254;60511;-67
2024/03/17 05:37:01;;;;;;;68.90;37.20;;;;;;;16.52;46.55;100137.46;108166;1257;61125;-68
2024/03/17 05:39:28;;;;;;;70.00;34.40;;;;;;;16.87;45.95;100141.15;108237;1256;60315;-67
2024/03/17 05:41:55;;;;;;;59.10;32.40;;;;;;;16.97;45.01;100139.16;108151;1254;73206;-67
2024/03/17 05:44:21;;;;;;;70.60;37.70;;;;;;;17.46;44.18;100138.13;108204;1254;70441;-67
2024/03/17 05:46:48;;;;;;;65.40;35.10;;;;;;;17.69;43.25;100137.51;108224;1256;61099;-68
2024/03/17 05:49:15;;;;;;;63.00;35.60;;;;;;;17.90;43.05;100132.73;108168;1253;61695;-69
2024/03/17 05:51:41;;;;;;;68.40;38.50;;;;;;;18.06;42.08;100135.54;108196;1254;61089;-69
2024/03/17 05:54:08;;;;;;;67.50;35.70;;;;;;;18.54;41.70;100135.67;108156;1254;61102;-68
2024/03/17 05:56:34;;;;;;;61.70;34.50;;;;;;;18.69;40.82;100135.48;108183;1254;61233;-68
2024/03/17 05:59:01;;;;;;;64.20;35.60;;;;;;;18.86;40.63;100133.42;108160;1253;72500;-68
2024/03/17 06:01:28;;;;;;;61.10;35.40;;;;;;;18.89;40.53;100131.59;108186;1253;61769;-68
2024/03/17 06:03:55;;;;;;;57.30;31.50;;;;;;;19.08;40.11;100123.32;108155;1253;61206;-68
2024/03/17 06:06:22;;;;;;;54.40;30.90;;;;;;;19.27;39.72;100123.20;108182;1254;75116;-67
2024/03/17 06:08:49;;;;;;;53.60;31.10;;;;;;;19.17;39.53;100124.58;108149;1254;70327;-67
2024/03/17 06:11:16;;;;;;;53.40;29.60;;;;;;;19.16;39.53;100124.16;108072;1253;72487;-69
2024/03/17 06:13:42;;;;;;;48.70;28.60;;;;;;;18.97;40.04;100121.62;108056;1254;61048;-68
2024/03/17 06:16:09;;;;;;;46.90;26.10;;;;;;;19.36;39.34;100125.54;108081;1254;61107;-68
2024/03/17 06:18:37;;;;;;;39.30;23.60;;;;;;;19.49;39.07;100124.23;108121;1254;74460;-68
2024/03/17 06:21:05;;;;;;;47.70;26.90;;;;;;;19.21;39.44;100119.88;108021;1254;71193;-68
2024/03/17 06:23:31;;;;;;;39.40;23.90;;;;;;;19.30;39.31;100124.73;107996;1254;72650;-68
2024/03/17 06:25:59;;;;;;;39.50;23.00;;;;;;;19.27;39.34;100124.25;108060;1254;61152;-68
2024/03/17 06:28:26;;;;;;;40.70;24.70;;;;;;;19.45;39.08;100123.95;108096;1253;61231;-67
2024/03/17 06:30:59;;;;;;;37.30;20.80;;;;;;;20.08;38.45;100126.93;108055;1254;75152;-68
2024/03/17 06:33:28;;;;;;;35.70;22.20;;;;;;;20.08;37.98;100121.91;108190;1254;70394;-68
2024/03/17 06:35:56;;;;;;;38.20;21.70;;;;;;;20.35;37.57;100121.84;108197;1256;72429;-68
2024/03/17 06:38:22;;;;;;;39.00;21.80;;;;;;;20.36;37.30;100119.39;108233;1254;61357;-68
2024/03/17 06:40:50;;;;;;;35.20;22.00;;;;;;;20.30;37.46;100121.98;108232;1257;59957;-68
2024/03/17 06:43:17;;;;;;;35.10;20.90;;;;;;;20.65;37.09;100119.44;108279;1253;72798;-68
2024/03/17 06:45:44;;;;;;;34.90;19.90;;;;;;;20.74;36.87;100117.90;108060;1254;68816;-69
2024/03/17 06:48:10;;;;;;;36.70;22.50;;;;;;;21.13;36.31;100115.47;108232;1254;72563;-68
2024/03/17 06:50:40;;;;;;;34.60;20.60;;;;;;;21.28;35.66;100116.55;108331;1256;61676;-69
2024/03/17 06:53:08;;;;;;;34.50;21.60;;;;;;;21.33;35.78;100111.16;108260;1253;59421;-68
2024/03/17 06:55:35;;;;;;;42.60;22.30;;;;;;;21.41;35.54;100116.52;108139;1253;73160;-69
2024/03/17 06:58:03;;;;;;;33.30;21.50;;;;;;;21.21;35.81;100120.71;108178;1253;71414;-69
2024/03/17 07:00:29;;;;;;;31.80;20.60;;;;;;;21.19;35.62;100123.52;108215;1253;72531;-68
2024/03/17 07:02:57;;;;;;;35.20;20.80;;;;;;;21.07;35.98;100126.67;108277;1253;61101;-69
2024/03/17 07:05:23;;;;;;;34.20;21.80;;;;;;;20.93;36.34;100125.66;108232;1254;61313;-68
2024/03/17 07:07:51;;;;;;;30.60;20.20;;;;;;;21.12;35.81;100123.55;108256;1253;61110;-69
2024/03/17 07:10:18;;;;;;;35.20;20.10;;;;;;;20.99;36.12;100122.65;108221;1256;70119;-69
2024/03/17 07:12:44;;;;;;;32.20;21.20;;;;;;;21.22;35.78;100118.30;108228;1252;72683;-68
2024/03/17 07:15:11;;;;;;;35.90;21.40;;;;;;;21.34;35.46;100116.45;108217;1253;61122;-69
2024/03/17 07:17:37;;;;;;;34.70;20.00;;;;;;;21.27;35.84;100117.05;108175;1253;61218;-69
2024/03/17 07:20:09;;;;;;;38.70;24.70;;;;;;;21.25;35.74;100117.36;108105;1253;74357;-69
2024/03/17 07:22:35;;;;;;;35.70;21.90;;;;;;;21.21;35.64;100118.42;108167;1254;70110;-68
2024/03/17 07:25:02;;;;;;;32.80;20.70;;;;;;;21.60;35.27;100111.61;108212;1253;72425;-68
2024/03/17 07:27:30;;;;;;;35.00;20.90;;;;;;;21.64;35.01;100111.67;108306;1253;61099;-70
2024/03/17 07:30:01;;;;;;;34.90;22.10;;;;;;;21.17;35.73;100113.36;108157;1253;61197;-69
2024/03/17 07:32:28;;;;;;;32.50;20.30;;;;;;;21.53;35.42;100114.31;108202;1252;74666;-68
2024/03/17 07:34:54;;;;;;;33.00;20.60;;;;;;;21.43;35.38;100114.44;108169;1253;70092;-68
2024/03/17 07:37:21;;;;;;;39.80;24.90;;;;;;;21.10;35.52;100119.42;108169;1254;61117;-68
2024/03/17 07:39:49;;;;;;;48.10;25.60;;;;;;;20.58;36.29;100118.76;108083;1253;61197;-69
2024/03/17 07:42:16;;;;;;;35.20;22.00;;;;;;;20.44;36.78;100114.52;108154;1254;61135;-68
2024/03/17 07:44:45;;;;;;;35.60;20.60;;;;;;;20.65;36.37;100115.55;108215;1253;74464;-69
2024/03/17 07:47:12;;;;;;;33.40;20.10;;;;;;;20.71;36.34;100111.91;108259;1253;69435;-68
2024/03/17 07:49:38;;;;;;;33.70;19.90;;;;;;;20.07;37.00;100120.08;108165;1253;72501;-68
2024/03/17 07:52:05;;;;;;;39.70;22.70;;;;;;;19.55;37.81;100122.34;108198;1254;61221;-68
2024/03/17 07:54:35;;;;;;;36.90;22.50;;;;;;;19.02;38.93;100121.04;108300;1252;60294;-70
2024/03/17 07:57:02;;;;;;;40.80;23.50;;;;;;;18.66;39.55;100123.81;108227;1254;74760;-68
2024/03/17 07:59:28;;;;;;;40.70;21.70;;;;;;;18.28;40.25;100123.77;108150;1252;70262;-68
2024/03/17 08:01:56;;;;;;;36.70;20.90;;;;;;;17.36;42.05;100121.04;108181;1255;72423;-68
2024/03/17 08:04:23;;;;;;;42.90;21.70;;;;;;;17.11;42.41;100124.44;108250;1252;61101;-68
2024/03/17 08:06:49;;;;;;;37.90;21.30;;;;;;;16.65;43.54;100127.09;108131;1253;60994;-67
2024/03/17 08:09:16;;;;;;;40.10;22.10;;;;;;;16.12;44.80;100125.02;108180;1256;74628;-68
2024/03/17 08:11:46;;;;;;;43.40;22.90;;;;;;;15.97;45.04;100120.99;108237;1253;61260;-68
2024/03/17 08:14:14;;;;;;;40.20;22.10;;;;;;;15.70;45.98;100118.66;108108;1252;71103;-68
2024/03/17 08:16:41;;;;;;;48.20;24.80;;;;;;;15.37;46.89;100123.39;108285;1252;61634;-68
2024/03/17 08:19:08;;;;;;;41.20;21.50;;;;;;;15.38;46.89;100121.21;108305;1252;61120;-68
2024/03/17 08:21:35;;;;;;;39.10;20.70;;;;;;;15.04;48.00;100118.16;108170;1253;73131;-67
2024/03/17 08:24:01;;;;;;;47.30;23.40;;;;;;;15.10;47.67;100114.30;108214;1252;70252;-68
2024/03/17 08:26:29;;;;;;;40.10;21.90;;;;;;;15.11;47.70;100114.57;108228;1253;71529;-67
2024/03/17 08:28:56;;;;;;;42.60;20.40;;;;;;;15.13;47.79;100111.30;108250;1252;61065;-68
2024/03/17 08:31:23;;;;;;;37.90;20.50;;;;;;;14.76;48.43;100112.97;108272;1252;61323;-67
2024/03/17 08:33:50;;;;;;;39.40;18.20;;;;;;;14.43;49.36;100106.58;108197;1253;61091;-68
2024/03/17 08:36:16;;;;;;;43.40;22.40;;;;;;;14.31;49.84;100104.02;108163;1253;70085;-68
2024/03/17 08:38:43;;;;;;;42.60;22.40;;;;;;;14.30;49.74;100100.73;108093;1252;72494;-68
2024/03/17 08:41:10;;;;;;;49.10;24.60;;;;;;;14.11;50.52;100107.39;108173;1252;61159;-68
2024/03/17 08:43:37;;;;;;;45.40;22.40;;;;;;;14.29;50.26;100104.52;108164;1253;59436;-68
2024/03/17 08:46:05;;;;;;;48.60;24.40;;;;;;;14.15;50.83;100105.06;108205;1253;74630;-68
2024/03/17 08:48:35;;;;;;;46.30;23.20;;;;;;;14.27;50.55;100106.73;108353;1252;70694;-69
2024/03/17 08:51:03;;;;;;;44.50;23.10;;;;;;;14.25;50.60;100102.41;108218;1256;72485;-68
2024/03/17 08:53:30;;;;;;;43.80;22.90;;;;;;;14.11;51.18;100101.39;108195;1253;61000;-68
2024/03/17 08:55:57;;;;;;;46.30;23.80;;;;;;;14.26;50.64;100102.02;108205;1252;61007;-67
2024/03/17 08:58:24;;;;;;;48.10;24.90;;;;;;;14.39;50.54;100100.64;108180;1253;75353;-67
2024/03/17 09:00:51;;;;;;;46.80;23.60;;;;;;;14.49;50.44;100099.23;108280;1252;70108;-68
2024/03/17 09:03:18;;;;;;;47.40;24.30;;;;;;;14.31;50.80;100096.48;108184;1253;72603;-68
2024/03/17 09:05:46;;;;;;;46.10;23.60;;;;;;;14.24;51.15;100094.73;108135;1252;61551;-68
2024/03/17 09:08:17;;;;;;;52.30;25.20;;;;;;;14.46;50.66;100100.80;108171;1252;61494;-68
2024/03/17 09:10:44;;;;;;;52.20;23.00;;;;;;;14.55;50.42;100100.35;108244;1253;76034;-68
2024/03/17 09:13:15;;;;;;;50.10;25.00;;;;;;;14.66;50.15;100102.00;108203;1252;70104;-68
2024/03/17 09:16:01;;;;;;;59.20;26.00;;;;;;;14.49;50.45;100103.84;108147;1253;72659;-68
2024/03/17 09:18:32;;;;;;;58.70;27.10;;;;;;;14.32;50.99;100100.27;108204;1253;61056;-67
2024/03/17 09:21:00;;;;;;;64.90;30.10;;;;;;;14.28;51.14;100095.55;108229;1252;61175;-67
2024/03/17 09:23:28;;;;;;;65.80;30.30;;;;;;;14.38;50.89;100093.23;108278;1252;74904;-68
2024/03/17 09:26:02;;;;;;;63.10;31.00;;;;;;;14.56;50.58;100089.84;108335;1252;70332;-67
2024/03/17 09:28:30;;;;;;;71.10;30.50;;;;;;;14.48;50.59;100089.57;108229;1253;74190;-70
2024/03/17 09:30:57;;;;;;;51.80;23.30;;;;;;;14.65;50.18;100084.60;108171;1253;61430;-67
2024/03/17 09:33:26;;;;;;;60.40;26.90;;;;;;;14.31;51.27;100087.11;108238;1252;61227;-67
2024/03/17 09:36:12;;;;;;;74.00;29.90;;;;;;;14.52;50.67;100086.89;108227;1252;74557;-67
2024/03/17 09:38:39;;;;;;;69.70;27.80;;;;;;;14.60;50.68;100081.52;108213;1253;70240;-67
2024/03/17 09:41:07;;;;;;;72.80;31.40;;;;;;;14.46;51.14;100085.80;108139;1253;72646;-67
2024/03/17 09:43:34;;;;;;;72.10;31.20;;;;;;;14.49;50.82;100093.55;108256;1253;61102;-68
2024/03/17 09:46:05;;;;;;;80.30;34.80;;;;;;;14.54;50.88;100093.83;108283;1253;61476;-67
2024/03/17 09:48:32;;;;;;;83.40;32.70;;;;;;;14.80;50.35;100091.52;108164;1254;73604;-67
2024/03/17 09:51:00;;;;;;;82.50;33.20;;;;;;;14.78;50.24;100091.11;108159;1253;71628;-67
2024/03/17 09:53:32;;;;;;;79.30;30.80;;;;;;;14.50;50.99;100088.91;108254;1252;73196;-67
2024/03/17 09:55:58;;;;;;;;;;;;;;;14.52;51.01;100086.35;108227;1252;61306;-67
2024/03/17 09:58:25;;;;;;;84.90;36.20;;;;;;;14.73;50.68;100079.19;108165;1252;61121;-67
2024/03/17 10:00:52;;;;;;;94.50;37.40;;;;;;;14.90;50.20;100075.77;108137;1253;75064;-67
2024/03/17 10:03:58;;;;;;;102.50;39.80;;;;;;;15.18;49.44;100069.95;108239;1252;70424;-67
2024/03/17 10:06:28;;;;;;;99.50;39.40;;;;;;;15.19;49.41;100064.95;108169;1252;72792;-67
2024/03/17 10:08:59;;;;;;;109.40;45.10;;;;;;;15.09;49.63;100062.38;108252;1253;61250;-67
2024/03/17 10:11:32;;;;;;;123.80;48.40;;;;;;;15.23;49.19;100062.29;108278;1252;61281;-68
2024/03/17 10:14:07;;;;;;;110.30;44.20;;;;;;;15.54;48.64;100065.77;108285;1253;74704;-67
2024/03/17 10:16:37;;;;;;;114.00;44.80;;;;;;;15.93;47.61;100073.77;108214;1252;70187;-67
2024/03/17 10:19:14;;;;;;;101.70;40.00;;;;;;;15.93;47.31;100072.52;108213;1254;73150;-67
2024/03/17 10:21:47;;;;;;;93.80;40.90;;;;;;;15.81;47.59;100071.27;108260;1252;61228;-67
2024/03/17 10:24:21;;;;;;;96.20;37.80;;;;;;;15.70;47.39;100071.75;108225;1252;61100;-67
2024/03/17 10:26:52;;;;;;;99.80;42.80;;;;;;;15.78;47.17;100065.45;108222;1253;73923;-67
2024/03/17 10:29:30;;;;;;;107.10;44.40;;;;;;;16.18;46.53;100066.77;108231;1253;68419;-67
2024/03/17 10:31:57;;;;;;;103.90;39.70;;;;;;;16.39;45.79;100063.16;108268;1252;71800;-67
2024/03/17 10:34:26;;;;;;;106.30;42.70;;;;;;;16.36;45.89;100064.23;108327;1252;61219;-67
2024/03/17 10:37:03;;;;;;;105.40;42.70;;;;;;;16.46;45.60;100061.98;108259;1253;61074;-67
2024/03/17 10:39:29;;;;;;;119.00;49.20;;;;;;;16.45;45.56;100056.95;108167;1256;74716;-67
2024/03/17 10:42:01;;;;;;;102.90;43.10;;;;;;;16.21;46.20;100058.61;108180;1255;70355;-67
2024/03/17 10:44:32;;;;;;;99.40;43.60;;;;;;;16.22;45.94;100050.25;108254;1253;71261;-67
2024/03/17 10:47:04;;;;;;;103.20;44.40;;;;;;;16.47;45.41;100049.00;108191;1253;61290;-68
2024/03/17 10:49:32;;;;;;;108.60;47.70;;;;;;;16.08;46.35;100054.09;108189;1252;61225;-68
2024/03/17 10:52:15;;;;;;;103.00;41.00;;;;;;;15.87;47.02;100063.48;108193;1252;74632;-69
2024/03/17 10:54:49;;;;;;;111.30;48.10;;;;;;;16.18;46.60;100048.33;108164;1253;70481;-69
2024/03/17 10:57:34;;;;;;;106.90;44.80;;;;;;;15.98;46.86;100047.77;108087;1253;72712;-69
2024/03/17 11:00:08;;;;;;;108.10;45.20;;;;;;;15.94;46.97;100049.45;108208;1252;61161;-68
2024/03/17 11:02:36;;;;;;;108.50;45.20;;;;;;;16.01;47.00;100040.89;108209;1253;61471;-68